sensor_id;sensor_type;location;lat;lon;timestamp;temperature;humidity
23873;DHT22;42884;50.718;4.630;2023-06-10T00:00:44;18.80;99.90
23873;DHT22;42884;50.718;4.630;2023-06-10T00:03:10;18.80;99.90
23873;DHT22;42884;50.718;4.630;2023-06-10T00:05:36;18.70;99.90
23873;DHT22;42884;50.718;4.630;2023-06-10T00:08:04;18.60;99.90
23873;DHT22;42884;50.718;4.630;2023-06-10T00:10:36;18.60;99.90
23873;DHT22;42884;50.718;4.630;2023-06-10T00:13:02;18.60;99.90
23873;DHT22;42884;50.718;4.630;2023-06-10T00:15:29;18.60;99.90
23873;DHT22;42884;50.718;4.630;2023-06-10T00:17:54;18.50;99.90
23873;DHT22;42884;50.718;4.630;2023-06-10T00:20:20;18.50;99.90
23873;DHT22;42884;50.718;4.630;2023-06-10T00:22:47;18.40;99.90
23873;DHT22;42884;50.718;4.630;2023-06-10T00:25:13;18.40;99.90
23873;DHT22;42884;50.718;4.630;2023-06-10T00:27:39;18.30;99.90
23873;DHT22;42884;50.718;4.630;2023-06-10T00:30:05;18.30;99.90
23873;DHT22;42884;50.718;4.630;2023-06-10T00:32:32;18.30;99.90
23873;DHT22;42884;50.718;4.630;2023-06-10T00:34:58;18.30;99.90
23873;DHT22;42884;50.718;4.630;2023-06-10T00:37:23;18.20;99.90
23873;DHT22;42884;50.718;4.630;2023-06-10T00:39:49;18.20;99.90
23873;DHT22;42884;50.718;4.630;2023-06-10T00:42:15;18.20;99.90
23873;DHT22;42884;50.718;4.630;2023-06-10T00:44:40;18.20;99.90
23873;DHT22;42884;50.718;4.630;2023-06-10T00:47:06;18.10;99.90
23873;DHT22;42884;50.718;4.630;2023-06-10T00:49:32;18.10;99.90
23873;DHT22;42884;50.718;4.630;2023-06-10T00:51:58;18.10;99.90
23873;DHT22;42884;50.718;4.630;2023-06-10T00:54:24;18.00;99.90
23873;DHT22;42884;50.718;4.630;2023-06-10T00:56:51;18.00;99.90
23873;DHT22;42884;50.718;4.630;2023-06-10T00:59:17;18.00;99.90
23873;DHT22;42884;50.718;4.630;2023-06-10T01:01:42;18.00;99.90
23873;DHT22;42884;50.718;4.630;2023-06-10T01:04:08;17.80;99.90
23873;DHT22;42884;50.718;4.630;2023-06-10T01:11:45;17.80;99.90
23873;DHT22;42884;50.718;4.630;2023-06-10T01:14:12;17.80;99.90
23873;DHT22;42884;50.718;4.630;2023-06-10T01:16:39;17.80;99.90
23873;DHT22;42884;50.718;4.630;2023-06-10T01:19:06;17.80;99.90
23873;DHT22;42884;50.718;4.630;2023-06-10T01:21:32;17.80;99.90
23873;DHT22;42884;50.718;4.630;2023-06-10T01:23:58;17.70;99.90
23873;DHT22;42884;50.718;4.630;2023-06-10T01:26:30;17.70;99.90
23873;DHT22;42884;50.718;4.630;2023-06-10T01:29:07;17.70;99.90
23873;DHT22;42884;50.718;4.630;2023-06-10T01:31:43;17.60;99.90
23873;DHT22;42884;50.718;4.630;2023-06-10T01:34:14;17.60;99.90
23873;DHT22;42884;50.718;4.630;2023-06-10T01:36:40;17.60;99.90
23873;DHT22;42884;50.718;4.630;2023-06-10T01:39:06;17.60;99.90
23873;DHT22;42884;50.718;4.630;2023-06-10T01:41:33;17.60;99.90
23873;DHT22;42884;50.718;4.630;2023-06-10T01:43:59;17.60;99.90
23873;DHT22;42884;50.718;4.630;2023-06-10T01:46:25;17.60;99.90
23873;DHT22;42884;50.718;4.630;2023-06-10T01:48:50;17.50;99.90
23873;DHT22;42884;50.718;4.630;2023-06-10T01:51:16;17.50;99.90
23873;DHT22;42884;50.718;4.630;2023-06-10T01:53:41;17.50;99.90
23873;DHT22;42884;50.718;4.630;2023-06-10T01:56:07;17.50;99.90
23873;DHT22;42884;50.718;4.630;2023-06-10T01:58:33;17.40;99.90
23873;DHT22;42884;50.718;4.630;2023-06-10T02:00:58;17.40;99.90
23873;DHT22;42884;50.718;4.630;2023-06-10T02:03:24;17.30;99.90
23873;DHT22;42884;50.718;4.630;2023-06-10T02:05:50;17.40;99.90
23873;DHT22;42884;50.718;4.630;2023-06-10T02:08:15;17.30;99.90
23873;DHT22;42884;50.718;4.630;2023-06-10T02:10:41;17.30;99.90
23873;DHT22;42884;50.718;4.630;2023-06-10T02:13:07;17.30;99.90
23873;DHT22;42884;50.718;4.630;2023-06-10T02:15:32;17.30;99.90
23873;DHT22;42884;50.718;4.630;2023-06-10T02:17:58;17.20;99.90
23873;DHT22;42884;50.718;4.630;2023-06-10T02:20:24;17.20;99.90
23873;DHT22;42884;50.718;4.630;2023-06-10T02:22:50;17.10;99.90
23873;DHT22;42884;50.718;4.630;2023-06-10T02:25:16;17.10;99.90
23873;DHT22;42884;50.718;4.630;2023-06-10T02:27:41;17.10;99.90
23873;DHT22;42884;50.718;4.630;2023-06-10T02:30:07;17.10;99.90
23873;DHT22;42884;50.718;4.630;2023-06-10T02:32:35;17.10;99.90
23873;DHT22;42884;50.718;4.630;2023-06-10T02:35:00;17.00;99.90
23873;DHT22;42884;50.718;4.630;2023-06-10T02:37:26;17.00;99.90
23873;DHT22;42884;50.718;4.630;2023-06-10T02:39:52;17.00;99.90
23873;DHT22;42884;50.718;4.630;2023-06-10T02:42:18;17.00;99.90
23873;DHT22;42884;50.718;4.630;2023-06-10T02:44:43;17.00;99.90
23873;DHT22;42884;50.718;4.630;2023-06-10T02:47:09;17.00;99.90
23873;DHT22;42884;50.718;4.630;2023-06-10T02:49:34;17.00;99.90
23873;DHT22;42884;50.718;4.630;2023-06-10T02:52:00;16.90;99.90
23873;DHT22;42884;50.718;4.630;2023-06-10T02:54:26;16.90;99.90
23873;DHT22;42884;50.718;4.630;2023-06-10T02:56:52;16.90;99.90
23873;DHT22;42884;50.718;4.630;2023-06-10T02:59:18;16.90;99.90
23873;DHT22;42884;50.718;4.630;2023-06-10T03:01:43;16.90;99.90
23873;DHT22;42884;50.718;4.630;2023-06-10T03:04:09;16.80;99.90
23873;DHT22;42884;50.718;4.630;2023-06-10T03:06:35;16.80;99.90
23873;DHT22;42884;50.718;4.630;2023-06-10T03:09:04;16.80;99.90
23873;DHT22;42884;50.718;4.630;2023-06-10T03:11:29;16.80;99.90
23873;DHT22;42884;50.718;4.630;2023-06-10T03:13:57;16.80;99.90
23873;DHT22;42884;50.718;4.630;2023-06-10T03:16:23;16.70;99.90
23873;DHT22;42884;50.718;4.630;2023-06-10T03:18:50;16.70;99.90
23873;DHT22;42884;50.718;4.630;2023-06-10T03:21:16;16.60;99.90
23873;DHT22;42884;50.718;4.630;2023-06-10T03:23:41;16.60;99.90
23873;DHT22;42884;50.718;4.630;2023-06-10T03:26:07;16.60;99.90
23873;DHT22;42884;50.718;4.630;2023-06-10T03:28:33;16.50;99.90
23873;DHT22;42884;50.718;4.630;2023-06-10T03:30:59;16.50;99.90
23873;DHT22;42884;50.718;4.630;2023-06-10T03:33:24;16.50;99.90
23873;DHT22;42884;50.718;4.630;2023-06-10T03:35:51;16.50;99.90
23873;DHT22;42884;50.718;4.630;2023-06-10T03:38:17;16.50;99.90
23873;DHT22;42884;50.718;4.630;2023-06-10T03:40:42;16.50;99.90
23873;DHT22;42884;50.718;4.630;2023-06-10T03:43:08;16.50;99.90
23873;DHT22;42884;50.718;4.630;2023-06-10T03:45:33;16.50;99.90
23873;DHT22;42884;50.718;4.630;2023-06-10T03:47:59;16.50;99.90
23873;DHT22;42884;50.718;4.630;2023-06-10T03:50:25;16.50;99.90
23873;DHT22;42884;50.718;4.630;2023-06-10T03:52:51;16.40;99.90
23873;DHT22;42884;50.718;4.630;2023-06-10T03:55:17;16.50;99.90
23873;DHT22;42884;50.718;4.630;2023-06-10T03:57:43;16.40;99.90
23873;DHT22;42884;50.718;4.630;2023-06-10T04:00:09;16.40;99.90
23873;DHT22;42884;50.718;4.630;2023-06-10T04:02:37;16.40;99.90
23873;DHT22;42884;50.718;4.630;2023-06-10T04:05:11;16.30;99.90
23873;DHT22;42884;50.718;4.630;2023-06-10T04:07:37;16.40;99.90
23873;DHT22;42884;50.718;4.630;2023-06-10T04:10:04;16.40;99.90
23873;DHT22;42884;50.718;4.630;2023-06-10T04:12:30;16.40;99.90
23873;DHT22;42884;50.718;4.630;2023-06-10T04:14:56;16.40;99.90
23873;DHT22;42884;50.718;4.630;2023-06-10T04:17:21;16.40;99.90
23873;DHT22;42884;50.718;4.630;2023-06-10T04:19:47;16.50;99.90
23873;DHT22;42884;50.718;4.630;2023-06-10T04:22:12;16.40;99.90
23873;DHT22;42884;50.718;4.630;2023-06-10T04:24:38;16.40;99.90
23873;DHT22;42884;50.718;4.630;2023-06-10T04:27:04;16.40;99.90
23873;DHT22;42884;50.718;4.630;2023-06-10T04:29:30;16.40;99.90
23873;DHT22;42884;50.718;4.630;2023-06-10T04:31:56;16.50;99.90
23873;DHT22;42884;50.718;4.630;2023-06-10T04:34:21;16.50;99.90
23873;DHT22;42884;50.718;4.630;2023-06-10T04:36:47;16.60;99.90
23873;DHT22;42884;50.718;4.630;2023-06-10T04:39:13;16.60;99.90
23873;DHT22;42884;50.718;4.630;2023-06-10T04:41:38;16.60;99.90
23873;DHT22;42884;50.718;4.630;2023-06-10T04:44:04;16.60;99.90
23873;DHT22;42884;50.718;4.630;2023-06-10T04:46:29;16.60;99.90
23873;DHT22;42884;50.718;4.630;2023-06-10T04:48:57;16.70;99.90
23873;DHT22;42884;50.718;4.630;2023-06-10T04:51:22;16.70;99.90
23873;DHT22;42884;50.718;4.630;2023-06-10T04:53:48;16.80;99.90
23873;DHT22;42884;50.718;4.630;2023-06-10T04:56:13;16.90;99.90
23873;DHT22;42884;50.718;4.630;2023-06-10T04:58:40;17.00;99.90
23873;DHT22;42884;50.718;4.630;2023-06-10T05:01:06;17.10;99.90
23873;DHT22;42884;50.718;4.630;2023-06-10T05:03:31;17.20;99.90
23873;DHT22;42884;50.718;4.630;2023-06-10T05:05:57;17.20;99.90
23873;DHT22;42884;50.718;4.630;2023-06-10T05:08:22;17.30;99.90
23873;DHT22;42884;50.718;4.630;2023-06-10T05:10:48;17.50;99.90
23873;DHT22;42884;50.718;4.630;2023-06-10T05:13:16;17.60;99.90
23873;DHT22;42884;50.718;4.630;2023-06-10T05:15:42;17.70;99.90
23873;DHT22;42884;50.718;4.630;2023-06-10T05:18:10;17.80;99.90
23873;DHT22;42884;50.718;4.630;2023-06-10T05:20:37;17.90;99.90
23873;DHT22;42884;50.718;4.630;2023-06-10T05:23:02;18.00;99.90
23873;DHT22;42884;50.718;4.630;2023-06-10T05:25:30;18.10;99.90
23873;DHT22;42884;50.718;4.630;2023-06-10T05:27:55;18.20;99.90
23873;DHT22;42884;50.718;4.630;2023-06-10T05:30:21;18.30;99.90
23873;DHT22;42884;50.718;4.630;2023-06-10T05:32:47;18.50;99.90
23873;DHT22;42884;50.718;4.630;2023-06-10T05:35:13;18.60;99.90
23873;DHT22;42884;50.718;4.630;2023-06-10T05:37:39;18.70;99.90
23873;DHT22;42884;50.718;4.630;2023-06-10T05:40:05;18.80;99.90
23873;DHT22;42884;50.718;4.630;2023-06-10T05:42:30;18.90;99.90
23873;DHT22;42884;50.718;4.630;2023-06-10T05:44:56;19.00;99.90
23873;DHT22;42884;50.718;4.630;2023-06-10T05:47:21;19.10;99.90
23873;DHT22;42884;50.718;4.630;2023-06-10T05:49:47;19.20;99.90
23873;DHT22;42884;50.718;4.630;2023-06-10T05:52:15;19.30;99.90
23873;DHT22;42884;50.718;4.630;2023-06-10T05:54:40;19.40;99.90
23873;DHT22;42884;50.718;4.630;2023-06-10T05:57:06;19.60;99.90
23873;DHT22;42884;50.718;4.630;2023-06-10T05:59:32;19.70;99.90
23873;DHT22;42884;50.718;4.630;2023-06-10T06:01:58;19.80;99.90
23873;DHT22;42884;50.718;4.630;2023-06-10T06:04:23;19.90;99.90
23873;DHT22;42884;50.718;4.630;2023-06-10T06:06:49;20.00;99.90
23873;DHT22;42884;50.718;4.630;2023-06-10T06:09:14;20.10;99.90
23873;DHT22;42884;50.718;4.630;2023-06-10T06:11:40;20.20;99.90
23873;DHT22;42884;50.718;4.630;2023-06-10T06:14:06;20.30;99.90
23873;DHT22;42884;50.718;4.630;2023-06-10T06:16:32;20.40;99.90
23873;DHT22;42884;50.718;4.630;2023-06-10T06:18:57;20.50;99.90
23873;DHT22;42884;50.718;4.630;2023-06-10T06:21:23;20.60;99.90
23873;DHT22;42884;50.718;4.630;2023-06-10T06:23:49;20.70;99.90
23873;DHT22;42884;50.718;4.630;2023-06-10T06:26:15;20.80;99.90
23873;DHT22;42884;50.718;4.630;2023-06-10T06:28:40;20.90;99.90
23873;DHT22;42884;50.718;4.630;2023-06-10T06:31:06;21.00;99.90
23873;DHT22;42884;50.718;4.630;2023-06-10T06:33:32;21.20;99.90
23873;DHT22;42884;50.718;4.630;2023-06-10T06:35:58;21.30;99.90
23873;DHT22;42884;50.718;4.630;2023-06-10T06:38:25;21.50;99.90
23873;DHT22;42884;50.718;4.630;2023-06-10T06:40:51;21.70;99.90
23873;DHT22;42884;50.718;4.630;2023-06-10T06:43:16;21.80;99.90
23873;DHT22;42884;50.718;4.630;2023-06-10T06:45:44;22.00;99.90
23873;DHT22;42884;50.718;4.630;2023-06-10T06:48:10;22.10;99.90
23873;DHT22;42884;50.718;4.630;2023-06-10T06:50:36;22.30;99.90
23873;DHT22;42884;50.718;4.630;2023-06-10T06:53:02;22.50;99.90
23873;DHT22;42884;50.718;4.630;2023-06-10T06:55:27;22.60;99.90
23873;DHT22;42884;50.718;4.630;2023-06-10T06:57:53;22.70;99.90
23873;DHT22;42884;50.718;4.630;2023-06-10T07:00:18;22.80;99.90
23873;DHT22;42884;50.718;4.630;2023-06-10T07:02:44;22.90;99.90
23873;DHT22;42884;50.718;4.630;2023-06-10T07:05:10;22.90;99.90
23873;DHT22;42884;50.718;4.630;2023-06-10T07:07:35;23.10;99.90
23873;DHT22;42884;50.718;4.630;2023-06-10T07:10:01;23.20;99.90
23873;DHT22;42884;50.718;4.630;2023-06-10T07:12:26;23.40;99.90
23873;DHT22;42884;50.718;4.630;2023-06-10T07:14:52;23.50;99.90
23873;DHT22;42884;50.718;4.630;2023-06-10T07:17:18;23.60;99.90
23873;DHT22;42884;50.718;4.630;2023-06-10T07:19:44;23.80;99.90
23873;DHT22;42884;50.718;4.630;2023-06-10T07:22:09;23.90;99.90
23873;DHT22;42884;50.718;4.630;2023-06-10T07:24:35;24.10;99.90
23873;DHT22;42884;50.718;4.630;2023-06-10T07:27:00;24.20;99.90
23873;DHT22;42884;50.718;4.630;2023-06-10T07:29:26;24.40;99.90
23873;DHT22;42884;50.718;4.630;2023-06-10T07:31:52;24.50;99.90
23873;DHT22;42884;50.718;4.630;2023-06-10T07:34:19;24.70;99.90
23873;DHT22;42884;50.718;4.630;2023-06-10T07:36:44;24.80;99.90
23873;DHT22;42884;50.718;4.630;2023-06-10T07:39:10;25.00;99.90
23873;DHT22;42884;50.718;4.630;2023-06-10T07:41:36;25.10;99.90
23873;DHT22;42884;50.718;4.630;2023-06-10T07:44:01;25.20;99.90
23873;DHT22;42884;50.718;4.630;2023-06-10T07:46:27;25.30;99.90
23873;DHT22;42884;50.718;4.630;2023-06-10T07:48:53;25.50;99.90
23873;DHT22;42884;50.718;4.630;2023-06-10T07:51:20;25.50;99.90
23873;DHT22;42884;50.718;4.630;2023-06-10T07:53:45;25.70;99.90
23873;DHT22;42884;50.718;4.630;2023-06-10T07:56:11;25.80;99.90
23873;DHT22;42884;50.718;4.630;2023-06-10T07:58:37;25.90;99.90
23873;DHT22;42884;50.718;4.630;2023-06-10T08:01:02;26.10;99.90
23873;DHT22;42884;50.718;4.630;2023-06-10T08:03:28;26.20;99.90
23873;DHT22;42884;50.718;4.630;2023-06-10T08:05:53;26.20;99.90
23873;DHT22;42884;50.718;4.630;2023-06-10T08:08:19;26.40;99.90
23873;DHT22;42884;50.718;4.630;2023-06-10T08:10:45;26.60;99.90
23873;DHT22;42884;50.718;4.630;2023-06-10T08:13:10;26.70;99.90
23873;DHT22;42884;50.718;4.630;2023-06-10T08:15:36;26.90;99.90
23873;DHT22;42884;50.718;4.630;2023-06-10T08:18:01;27.20;99.90
23873;DHT22;42884;50.718;4.630;2023-06-10T08:20:27;27.40;99.90
23873;DHT22;42884;50.718;4.630;2023-06-10T08:22:53;27.30;99.90
23873;DHT22;42884;50.718;4.630;2023-06-10T08:25:18;27.40;99.90
23873;DHT22;42884;50.718;4.630;2023-06-10T08:27:44;27.70;99.90
23873;DHT22;42884;50.718;4.630;2023-06-10T08:30:10;27.90;99.90
23873;DHT22;42884;50.718;4.630;2023-06-10T08:32:36;28.10;99.90
23873;DHT22;42884;50.718;4.630;2023-06-10T08:35:02;28.40;99.90
23873;DHT22;42884;50.718;4.630;2023-06-10T08:37:28;28.60;99.90
23873;DHT22;42884;50.718;4.630;2023-06-10T08:39:54;28.90;99.90
23873;DHT22;42884;50.718;4.630;2023-06-10T08:42:23;29.10;99.90
23873;DHT22;42884;50.718;4.630;2023-06-10T08:44:54;29.10;99.90
23873;DHT22;42884;50.718;4.630;2023-06-10T08:47:24;29.40;99.90
23873;DHT22;42884;50.718;4.630;2023-06-10T08:49:50;29.80;99.90
23873;DHT22;42884;50.718;4.630;2023-06-10T08:52:17;29.90;99.90
23873;DHT22;42884;50.718;4.630;2023-06-10T08:54:52;30.20;99.90
23873;DHT22;42884;50.718;4.630;2023-06-10T08:57:19;30.30;99.20
23873;DHT22;42884;50.718;4.630;2023-06-10T08:59:47;30.50;99.90
23873;DHT22;42884;50.718;4.630;2023-06-10T09:02:13;30.70;98.60
23873;DHT22;42884;50.718;4.630;2023-06-10T09:04:41;31.10;98.40
23873;DHT22;42884;50.718;4.630;2023-06-10T09:07:07;31.30;98.10
23873;DHT22;42884;50.718;4.630;2023-06-10T09:09:33;31.20;96.60
23873;DHT22;42884;50.718;4.630;2023-06-10T09:12:00;31.30;96.10
23873;DHT22;42884;50.718;4.630;2023-06-10T09:14:25;31.60;95.70
23873;DHT22;42884;50.718;4.630;2023-06-10T09:16:52;31.60;95.30
23873;DHT22;42884;50.718;4.630;2023-06-10T09:19:22;32.00;96.00
23873;DHT22;42884;50.718;4.630;2023-06-10T09:21:48;32.40;96.00
23873;DHT22;42884;50.718;4.630;2023-06-10T09:24:13;32.70;96.10
23873;DHT22;42884;50.718;4.630;2023-06-10T09:26:39;32.70;95.00
23873;DHT22;42884;50.718;4.630;2023-06-10T09:29:06;32.80;92.90
23873;DHT22;42884;50.718;4.630;2023-06-10T09:31:34;32.70;92.50
23873;DHT22;42884;50.718;4.630;2023-06-10T09:34:07;33.10;92.70
23873;DHT22;42884;50.718;4.630;2023-06-10T09:36:33;33.10;93.60
23873;DHT22;42884;50.718;4.630;2023-06-10T09:38:58;33.20;91.80
23873;DHT22;42884;50.718;4.630;2023-06-10T09:41:42;33.60;91.30
23873;DHT22;42884;50.718;4.630;2023-06-10T09:44:26;34.00;91.90
23873;DHT22;42884;50.718;4.630;2023-06-10T09:46:52;34.20;92.00
23873;DHT22;42884;50.718;4.630;2023-06-10T09:49:20;34.20;89.30
23873;DHT22;42884;50.718;4.630;2023-06-10T09:51:52;34.40;89.80
23873;DHT22;42884;50.718;4.630;2023-06-10T09:54:19;34.60;89.10
23873;DHT22;42884;50.718;4.630;2023-06-10T09:56:48;34.80;88.60
23873;DHT22;42884;50.718;4.630;2023-06-10T09:59:13;34.70;89.30
23873;DHT22;42884;50.718;4.630;2023-06-10T10:01:39;34.70;87.10
23873;DHT22;42884;50.718;4.630;2023-06-10T10:04:05;34.40;85.80
23873;DHT22;42884;50.718;4.630;2023-06-10T10:06:31;34.30;86.10
23873;DHT22;42884;50.718;4.630;2023-06-10T10:08:56;34.70;88.40
23873;DHT22;42884;50.718;4.630;2023-06-10T10:11:23;35.00;85.00
23873;DHT22;42884;50.718;4.630;2023-06-10T10:13:50;35.10;89.50
23873;DHT22;42884;50.718;4.630;2023-06-10T10:16:16;35.30;85.50
23873;DHT22;42884;50.718;4.630;2023-06-10T10:18:46;35.00;84.50
23873;DHT22;42884;50.718;4.630;2023-06-10T10:21:12;35.30;86.90
23873;DHT22;42884;50.718;4.630;2023-06-10T10:24:01;35.50;84.60
23873;DHT22;42884;50.718;4.630;2023-06-10T10:26:24;35.70;81.30
23873;DHT22;42884;50.718;4.630;2023-06-10T10:31:35;35.80;79.60
23873;DHT22;42884;50.718;4.630;2023-06-10T10:34:06;36.20;79.60
23873;DHT22;42884;50.718;4.630;2023-06-10T10:36:32;36.00;78.90
23873;DHT22;42884;50.718;4.630;2023-06-10T10:38:58;36.10;80.20
23873;DHT22;42884;50.718;4.630;2023-06-10T10:41:27;36.20;79.50
23873;DHT22;42884;50.718;4.630;2023-06-10T10:43:53;36.20;76.70
23873;DHT22;42884;50.718;4.630;2023-06-10T10:46:19;36.10;77.80
23873;DHT22;42884;50.718;4.630;2023-06-10T10:48:45;36.10;79.50
23873;DHT22;42884;50.718;4.630;2023-06-10T10:51:11;35.80;79.40
23873;DHT22;42884;50.718;4.630;2023-06-10T10:53:37;35.80;78.10
23873;DHT22;42884;50.718;4.630;2023-06-10T10:58:33;35.50;81.50
23873;DHT22;42884;50.718;4.630;2023-06-10T11:00:59;36.00;80.90
23873;DHT22;42884;50.718;4.630;2023-06-10T11:03:28;36.60;82.40
23873;DHT22;42884;50.718;4.630;2023-06-10T11:05:54;37.10;83.30
23873;DHT22;42884;50.718;4.630;2023-06-10T11:09:07;36.90;78.00
23873;DHT22;42884;50.718;4.630;2023-06-10T11:11:24;36.60;76.20
23873;DHT22;42884;50.718;4.630;2023-06-10T11:16:41;35.90;75.30
23873;DHT22;42884;50.718;4.630;2023-06-10T11:19:07;35.90;78.10
23873;DHT22;42884;50.718;4.630;2023-06-10T11:21:37;36.40;79.20
23873;DHT22;42884;50.718;4.630;2023-06-10T11:24:13;36.80;74.90
23873;DHT22;42884;50.718;4.630;2023-06-10T11:26:43;36.80;78.10
23873;DHT22;42884;50.718;4.630;2023-06-10T11:29:09;36.60;74.80
23873;DHT22;42884;50.718;4.630;2023-06-10T11:31:38;36.80;77.70
23873;DHT22;42884;50.718;4.630;2023-06-10T11:34:05;36.70;78.70
23873;DHT22;42884;50.718;4.630;2023-06-10T11:36:32;36.40;73.80
23873;DHT22;42884;50.718;4.630;2023-06-10T11:39:02;36.10;79.00
23873;DHT22;42884;50.718;4.630;2023-06-10T11:41:28;36.20;75.10
23873;DHT22;42884;50.718;4.630;2023-06-10T11:43:57;36.60;76.40
23873;DHT22;42884;50.718;4.630;2023-06-10T11:46:22;36.50;74.50
23873;DHT22;42884;50.718;4.630;2023-06-10T11:48:52;36.40;75.10
23873;DHT22;42884;50.718;4.630;2023-06-10T11:51:17;35.80;75.50
23873;DHT22;42884;50.718;4.630;2023-06-10T11:53:49;36.20;77.80
23873;DHT22;42884;50.718;4.630;2023-06-10T11:56:28;36.70;79.60
23873;DHT22;42884;50.718;4.630;2023-06-10T11:58:54;37.00;78.00
23873;DHT22;42884;50.718;4.630;2023-06-10T12:01:21;37.30;77.90
23873;DHT22;42884;50.718;4.630;2023-06-10T12:03:47;37.50;76.20
23873;DHT22;42884;50.718;4.630;2023-06-10T12:06:13;37.30;74.10
23873;DHT22;42884;50.718;4.630;2023-06-10T12:08:42;37.30;77.90
23873;DHT22;42884;50.718;4.630;2023-06-10T12:11:08;37.10;74.00
23873;DHT22;42884;50.718;4.630;2023-06-10T12:13:34;37.40;76.10
23873;DHT22;42884;50.718;4.630;2023-06-10T12:16:06;37.10;73.40
23873;DHT22;42884;50.718;4.630;2023-06-10T12:18:32;37.00;72.70
23873;DHT22;42884;50.718;4.630;2023-06-10T12:20:57;36.50;72.80
23873;DHT22;42884;50.718;4.630;2023-06-10T12:23:23;36.10;74.50
23873;DHT22;42884;50.718;4.630;2023-06-10T12:25:49;36.40;74.10
23873;DHT22;42884;50.718;4.630;2023-06-10T12:28:16;36.80;72.00
23873;DHT22;42884;50.718;4.630;2023-06-10T12:30:44;36.50;72.70
23873;DHT22;42884;50.718;4.630;2023-06-10T12:33:19;36.40;71.40
23873;DHT22;42884;50.718;4.630;2023-06-10T12:35:52;36.70;75.00
23873;DHT22;42884;50.718;4.630;2023-06-10T12:38:21;36.90;72.70
23873;DHT22;42884;50.718;4.630;2023-06-10T12:40:47;37.10;72.70
23873;DHT22;42884;50.718;4.630;2023-06-10T12:43:13;37.60;73.50
23873;DHT22;42884;50.718;4.630;2023-06-10T12:45:44;38.00;71.80
23873;DHT22;42884;50.718;4.630;2023-06-10T12:48:11;38.00;69.10
23873;DHT22;42884;50.718;4.630;2023-06-10T12:50:40;37.40;67.10
23873;DHT22;42884;50.718;4.630;2023-06-10T12:53:07;37.40;71.40
23873;DHT22;42884;50.718;4.630;2023-06-10T12:55:32;37.60;76.10
23873;DHT22;42884;50.718;4.630;2023-06-10T12:57:59;38.10;70.40
23873;DHT22;42884;50.718;4.630;2023-06-10T13:00:25;38.00;68.90
23873;DHT22;42884;50.718;4.630;2023-06-10T13:02:51;38.10;73.10
23873;DHT22;42884;50.718;4.630;2023-06-10T13:05:17;38.00;69.70
23873;DHT22;42884;50.718;4.630;2023-06-10T13:07:43;37.40;65.80
23873;DHT22;42884;50.718;4.630;2023-06-10T13:10:10;37.60;70.00
23873;DHT22;42884;50.718;4.630;2023-06-10T13:12:35;37.60;65.80
23873;DHT22;42884;50.718;4.630;2023-06-10T13:15:02;37.20;65.80
23873;DHT22;42884;50.718;4.630;2023-06-10T13:17:28;37.30;67.40
23873;DHT22;42884;50.718;4.630;2023-06-10T13:19:53;36.90;65.60
23873;DHT22;42884;50.718;4.630;2023-06-10T13:22:19;36.20;65.40
23873;DHT22;42884;50.718;4.630;2023-06-10T13:24:45;35.70;67.10
23873;DHT22;42884;50.718;4.630;2023-06-10T13:27:12;35.60;67.20
23873;DHT22;42884;50.718;4.630;2023-06-10T13:29:39;35.10;69.90
23873;DHT22;42884;50.718;4.630;2023-06-10T13:32:05;35.50;71.40
23873;DHT22;42884;50.718;4.630;2023-06-10T13:34:31;35.70;68.20
23873;DHT22;42884;50.718;4.630;2023-06-10T13:36:57;35.90;68.50
23873;DHT22;42884;50.718;4.630;2023-06-10T13:39:22;36.20;69.00
23873;DHT22;42884;50.718;4.630;2023-06-10T13:41:48;36.30;67.90
23873;DHT22;42884;50.718;4.630;2023-06-10T13:44:14;36.60;63.10
23873;DHT22;42884;50.718;4.630;2023-06-10T13:46:39;36.70;68.20
23873;DHT22;42884;50.718;4.630;2023-06-10T13:49:05;37.00;68.20
23873;DHT22;42884;50.718;4.630;2023-06-10T13:51:31;37.00;65.50
23873;DHT22;42884;50.718;4.630;2023-06-10T13:53:56;37.00;63.80
23873;DHT22;42884;50.718;4.630;2023-06-10T13:56:22;37.00;64.20
23873;DHT22;42884;50.718;4.630;2023-06-10T13:58:48;36.50;63.40
23873;DHT22;42884;50.718;4.630;2023-06-10T14:01:13;36.20;65.10
23873;DHT22;42884;50.718;4.630;2023-06-10T14:03:39;36.20;63.70
23873;DHT22;42884;50.718;4.630;2023-06-10T14:06:05;36.30;64.90
23873;DHT22;42884;50.718;4.630;2023-06-10T14:08:30;36.40;65.30
23873;DHT22;42884;50.718;4.630;2023-06-10T14:10:56;36.50;67.00
23873;DHT22;42884;50.718;4.630;2023-06-10T14:13:22;36.40;65.00
23873;DHT22;42884;50.718;4.630;2023-06-10T14:15:47;36.30;67.00
23873;DHT22;42884;50.718;4.630;2023-06-10T14:18:13;36.60;67.20
23873;DHT22;42884;50.718;4.630;2023-06-10T14:20:39;37.10;67.70
23873;DHT22;42884;50.718;4.630;2023-06-10T14:23:04;37.20;66.60
23873;DHT22;42884;50.718;4.630;2023-06-10T14:25:30;37.40;67.80
23873;DHT22;42884;50.718;4.630;2023-06-10T14:27:55;37.30;64.40
23873;DHT22;42884;50.718;4.630;2023-06-10T14:30:21;37.10;63.40
23873;DHT22;42884;50.718;4.630;2023-06-10T14:32:47;37.40;63.50
23873;DHT22;42884;50.718;4.630;2023-06-10T14:35:12;37.30;63.80
23873;DHT22;42884;50.718;4.630;2023-06-10T14:37:38;37.40;66.60
23873;DHT22;42884;50.718;4.630;2023-06-10T14:40:04;37.00;63.30
23873;DHT22;42884;50.718;4.630;2023-06-10T14:42:30;37.00;66.00
23873;DHT22;42884;50.718;4.630;2023-06-10T14:44:57;36.60;64.20
23873;DHT22;42884;50.718;4.630;2023-06-10T14:47:23;36.50;67.50
23873;DHT22;42884;50.718;4.630;2023-06-10T14:49:49;36.80;66.20
23873;DHT22;42884;50.718;4.630;2023-06-10T14:52:14;36.60;66.40
23873;DHT22;42884;50.718;4.630;2023-06-10T14:54:40;36.70;65.90
23873;DHT22;42884;50.718;4.630;2023-06-10T14:57:05;36.60;65.30
23873;DHT22;42884;50.718;4.630;2023-06-10T14:59:31;36.60;67.80
23873;DHT22;42884;50.718;4.630;2023-06-10T15:01:56;36.50;66.90
23873;DHT22;42884;50.718;4.630;2023-06-10T15:04:23;36.40;67.90
23873;DHT22;42884;50.718;4.630;2023-06-10T15:06:48;36.70;65.40
23873;DHT22;42884;50.718;4.630;2023-06-10T15:09:15;36.50;64.20
23873;DHT22;42884;50.718;4.630;2023-06-10T15:11:41;36.10;65.70
23873;DHT22;42884;50.718;4.630;2023-06-10T15:14:06;36.00;64.60
23873;DHT22;42884;50.718;4.630;2023-06-10T15:16:32;35.70;64.70
23873;DHT22;42884;50.718;4.630;2023-06-10T15:18:58;35.60;63.90
23873;DHT22;42884;50.718;4.630;2023-06-10T15:21:23;35.60;67.20
23873;DHT22;42884;50.718;4.630;2023-06-10T15:23:49;35.60;66.80
23873;DHT22;42884;50.718;4.630;2023-06-10T15:26:15;35.90;64.90
23873;DHT22;42884;50.718;4.630;2023-06-10T15:28:40;35.90;68.10
23873;DHT22;42884;50.718;4.630;2023-06-10T15:31:06;36.40;69.60
23873;DHT22;42884;50.718;4.630;2023-06-10T15:33:33;36.80;67.40
23873;DHT22;42884;50.718;4.630;2023-06-10T15:35:58;37.20;68.20
23873;DHT22;42884;50.718;4.630;2023-06-10T15:38:24;36.90;64.80